Monarch Pass, CO

9:17 AM MDT on May 25, 2017 (GMT -0600)
Monarch Pass

Weather History for KMYP - June, 2013

Change the Weather History Date:

Wednesday, June 19, 2013

  Actual Average (KALS) Record (KALS)
Temperature  
Mean Temperature 54 °F -  
Max Temperature 64 °F 78 °F 93 °F (2016)
Min Temperature 44 °F 41 °F 26 °F (1939)
Degree Days  
Heating Degree Days 11    
Growing Degree Days 4 (Base 50)    
Moisture  
Dew Point 10 °F    
Average Humidity 18    
Maximum Humidity 32    
Minimum Humidity 9    
Precipitation  
Precipitation 0.00 in - - ()
Sea Level Pressure  
Sea Level Pressure 30.48 in    
Wind  
Wind Speed 19 mph (SW)    
Max Wind Speed 39 mph    
Max Gust Speed 52 mph    
Visibility 10 miles    
Events      
Averages and records for this station are not official NWS values.
T = Trace of Precipitation, MM = Missing Value Source: NWS Daily Summary

Daily Weather History Graph

Daily Weather History Graph

Search for Another Location

Airport or City:

Trip Planner

Search our weather history database for the weather conditions in past years. The results will help you decide how hot, cold, wet, or windy it might be!

Date:

Astronomy

Jun. 19, 2013 Rise Set
Actual Time 5:41 AM MDT 8:31 PM MDT
Civil Twilight 5:09 AM MDT 9:02 PM MDT
Nautical Twilight 4:29 AM MDT 9:42 PM MDT
Astronomical Twilight 3:44 AM MDT 10:28 PM MDT
Moon 4:29 PM MDT (6/19) 2:24 AM MDT (6/19)
Length of Visible Light 15h 53m
Length of Day
14h 50m
Waxing Gibbous, 81% of the Moon is Illuminated
Jun 19
Waxing Gibbous
Jun 23
Full
Jun 29
Last Quarter
Jul 8
New
Jul 15
First Quarter

Hourly Weather History & Observations

Time (MDT) Temp. Windchill Dew Point Humidity Pressure Visibility Wind Dir Wind Speed Gust Speed Precip Events Conditions
12:14 AM 46.4 °F 39.8 °F 15.8 °F 29% 30.55 in 10.0 mi WSW 16.1 mph - N/A   Clear
12:34 AM 48.2 °F - 12.2 °F 24% 30.54 in 10.0 mi WSW 16.1 mph - N/A   Clear
12:54 AM 46.4 °F 39.5 °F 12.2 °F 25% 30.53 in 10.0 mi WSW 17.3 mph - N/A   Clear
1:14 AM 46.4 °F 40.1 °F 12.2 °F 25% 30.53 in 10.0 mi WSW 15.0 mph - N/A   Clear
1:34 AM 46.4 °F 40.1 °F 10.4 °F 23% 30.53 in 10.0 mi WSW 15.0 mph - N/A   Clear
1:54 AM 46.4 °F 40.4 °F 10.4 °F 23% 30.53 in 10.0 mi WSW 13.8 mph - N/A   Clear
2:14 AM 44.6 °F 37.8 °F 12.2 °F 27% 30.52 in 10.0 mi SW 15.0 mph - N/A   Clear
2:34 AM 46.4 °F 40.4 °F 8.6 °F 22% 30.51 in 10.0 mi WSW 13.8 mph - N/A   Clear
2:54 AM 46.4 °F 39.5 °F 6.8 °F 20% 30.50 in 10.0 mi WSW 17.3 mph - N/A   Clear
3:14 AM 46.4 °F 39.8 °F 5.0 °F 18% 30.50 in 10.0 mi WSW 16.1 mph - N/A   Clear
3:34 AM 48.2 °F - 6.8 °F 19% 30.50 in 10.0 mi WSW 16.1 mph - N/A   Clear
3:54 AM 46.4 °F 39.5 °F 6.8 °F 20% 30.49 in 10.0 mi WSW 17.3 mph - N/A   Clear
4:14 AM 46.4 °F 39.2 °F 6.8 °F 20% 30.49 in 10.0 mi WSW 18.4 mph - N/A   Clear
4:34 AM 46.4 °F 39.5 °F 6.8 °F 20% 30.49 in 10.0 mi WSW 17.3 mph - N/A   Clear
4:54 AM 46.4 °F 39.2 °F 8.6 °F 22% 30.49 in 10.0 mi SW 18.4 mph - N/A   Clear
5:14 AM 44.6 °F 37.4 °F 8.6 °F 23% 30.50 in 10.0 mi SW 16.1 mph - N/A   Clear
5:34 AM 44.6 °F 37.2 °F 8.6 °F 23% 30.49 in 10.0 mi SSW 17.3 mph - N/A   Clear
5:54 AM 44.6 °F 37.2 °F 10.4 °F 25% 30.49 in 10.0 mi SW 17.3 mph - N/A   Clear
6:14 AM 44.6 °F 36.6 °F 12.2 °F 27% 30.49 in 10.0 mi SW 19.6 mph - N/A   Clear
6:34 AM 44.6 °F 36.6 °F 14.0 °F 29% 30.49 in 10.0 mi SSW 19.6 mph 25.3 mph N/A   Clear
6:54 AM 44.6 °F 37.2 °F 14.0 °F 29% 30.49 in 10.0 mi SSW 17.3 mph - N/A   Clear
7:14 AM 44.6 °F 37.4 °F 15.8 °F 31% 30.49 in 10.0 mi SSW 16.1 mph - N/A   Clear
7:34 AM 46.4 °F 39.5 °F 14.0 °F 27% 30.49 in 10.0 mi SW 17.3 mph - N/A   Clear
7:54 AM 46.4 °F 39.8 °F 17.6 °F 32% 30.50 in 10.0 mi SSW 16.1 mph - N/A   Clear
8:14 AM 50.0 °F - 17.6 °F 28% 30.50 in 10.0 mi SSW 15.0 mph - N/A   Clear
8:34 AM 50.0 °F - 15.8 °F 26% 30.50 in 10.0 mi SSW 13.8 mph - N/A   Clear
8:54 AM 51.8 °F - 15.8 °F 24% 30.50 in 10.0 mi SSW 17.3 mph - N/A   Clear
9:14 AM 51.8 °F - 14.0 °F 22% 30.50 in 10.0 mi SSW 13.8 mph - N/A   Clear
9:34 AM 53.6 °F - 15.8 °F 22% 30.49 in 10.0 mi SSW 18.4 mph 23.0 mph N/A   Clear
9:54 AM 53.6 °F - 15.8 °F 22% 30.50 in 10.0 mi SSW 17.3 mph 24.2 mph N/A   Clear
10:14 AM 55.4 °F - 17.6 °F 23% 30.49 in 10.0 mi SSW 18.4 mph 24.2 mph N/A   Clear
10:34 AM 55.4 °F - 12.2 °F 18% 30.49 in 10.0 mi WSW 23.0 mph 34.5 mph N/A   Clear
10:54 AM 59.0 °F - 17.6 °F 20% 30.49 in 10.0 mi SSW 19.6 mph 28.8 mph N/A   Clear
11:14 AM 57.2 °F - 17.6 °F 21% 30.49 in 10.0 mi SW 17.3 mph 28.8 mph N/A   Clear
11:34 AM 59.0 °F - 15.8 °F 19% 30.49 in 10.0 mi SSW 18.4 mph 28.8 mph N/A   Clear
11:54 AM 59.0 °F - 15.8 °F 19% 30.49 in 10.0 mi SSW 19.6 mph 31.1 mph N/A   Clear
12:14 PM 59.0 °F - 17.6 °F 20% 30.48 in 10.0 mi SSW 18.4 mph 24.2 mph N/A   Clear
12:34 PM 60.8 °F - 17.6 °F 19% 30.47 in 10.0 mi SSW 18.4 mph 28.8 mph N/A   Scattered Clouds
12:54 PM 59.0 °F - 17.6 °F 20% 30.47 in 10.0 mi South 11.5 mph 25.3 mph N/A   Scattered Clouds
1:14 PM 60.8 °F - 15.8 °F 17% 30.46 in 10.0 mi SW 25.3 mph 41.4 mph N/A   Scattered Clouds
1:34 PM 60.8 °F - 14.0 °F 16% 30.47 in 10.0 mi SW 20.7 mph 28.8 mph N/A   Scattered Clouds
1:54 PM 64.4 °F - 14.0 °F 14% 30.46 in 10.0 mi SSW 13.8 mph 28.8 mph N/A   Scattered Clouds
2:14 PM 62.6 °F - 12.2 °F 14% 30.45 in 10.0 mi WSW 32.2 mph 39.1 mph N/A   Clear
2:34 PM 62.6 °F - 10.4 °F 13% 30.46 in 10.0 mi WNW 25.3 mph 38.0 mph N/A   Clear
2:54 PM 64.4 °F - 10.4 °F 12% 30.47 in 10.0 mi West 24.2 mph 35.7 mph N/A   Clear
3:14 PM 62.6 °F - 8.6 °F 12% 30.46 in 10.0 mi SW 20.7 mph 39.1 mph N/A   Clear
3:34 PM 64.4 °F - 8.6 °F 11% 30.45 in 10.0 mi West 27.6 mph 35.7 mph N/A   Clear
3:54 PM 64.4 °F - 10.4 °F 12% 30.44 in 10.0 mi West 33.4 mph 38.0 mph N/A   Clear
4:14 PM 64.4 °F - 3.2 °F 9% 30.42 in 10.0 mi WSW 39.1 mph 51.8 mph N/A   Clear
4:34 PM 64.4 °F - 3.2 °F 9% 30.43 in 10.0 mi West 36.8 mph 48.3 mph N/A   Clear
4:54 PM 64.4 °F - 5.0 °F 10% 30.43 in 10.0 mi West 33.4 mph 49.5 mph N/A   Clear
5:14 PM 64.4 °F - 8.6 °F 11% 30.44 in 10.0 mi West 25.3 mph 49.5 mph N/A   Clear
5:34 PM 62.6 °F - 5.0 °F 10% 30.43 in 10.0 mi WSW 26.5 mph 38.0 mph N/A   Clear
5:54 PM 62.6 °F - 6.8 °F 11% 30.44 in 10.0 mi West 23.0 mph 40.3 mph N/A   Clear
6:14 PM 62.6 °F - 6.8 °F 11% 30.44 in 10.0 mi West 33.4 mph 38.0 mph N/A   Clear
6:34 PM 60.8 °F - 5.0 °F 11% 30.45 in 10.0 mi West 21.9 mph 39.1 mph N/A   Clear
6:54 PM 60.8 °F - 6.8 °F 12% 30.45 in 10.0 mi WSW 27.6 mph 39.1 mph N/A   Clear
7:14 PM 60.8 °F - 6.8 °F 12% 30.45 in 10.0 mi West 24.2 mph 40.3 mph N/A   Clear
7:34 PM 59.0 °F - 5.0 °F 12% 30.45 in 10.0 mi WSW 23.0 mph 38.0 mph N/A   Clear
7:54 PM 57.2 °F - 5.0 °F 12% 30.46 in 10.0 mi West 28.8 mph 35.7 mph N/A   Clear
8:14 PM 55.4 °F - 5.0 °F 13% 30.46 in 10.0 mi West 27.6 mph 33.4 mph N/A   Clear
8:34 PM 53.6 °F - 5.0 °F 14% 30.47 in 10.0 mi SW 19.6 mph 25.3 mph N/A   Clear
8:54 PM 53.6 °F - 5.0 °F 14% 30.46 in 10.0 mi WSW 27.6 mph 34.5 mph N/A   Clear
9:14 PM 51.8 °F - 5.0 °F 15% 30.47 in 10.0 mi WSW 24.2 mph 34.5 mph N/A   Clear
9:34 PM 51.8 °F - 3.2 °F 14% 30.47 in 10.0 mi WSW 25.3 mph 31.1 mph N/A   Clear
9:54 PM 51.8 °F - 3.2 °F 14% 30.48 in 10.0 mi WSW 23.0 mph 27.6 mph N/A   Clear
10:14 PM 51.8 °F - 3.2 °F 14% 30.49 in 10.0 mi WSW 20.7 mph 27.6 mph N/A   Clear
10:34 PM 50.0 °F - 3.2 °F 15% 30.49 in 10.0 mi WSW 21.9 mph - N/A   Clear
10:54 PM 50.0 °F - 5.0 °F 16% 30.49 in 10.0 mi WSW 24.2 mph - N/A   Clear
11:14 PM 50.0 °F - 3.2 °F 15% 30.48 in 10.0 mi WSW 26.5 mph - N/A   Clear
11:34 PM 50.0 °F - 3.2 °F 15% 30.48 in 10.0 mi WSW 28.8 mph - N/A   Clear
11:54 PM 50.0 °F - 1.4 °F 14% 30.48 in 10.0 mi WSW 27.6 mph - N/A   Clear